sensor_id;sensor_type;location;lat;lon;timestamp;P1;durP1;ratioP1;P2;durP2;ratioP2
64295;SDS011;51082;38.236;15.432;2023-06-10T00:00:15;1.60;;;1.15;;
64295;SDS011;51082;38.236;15.432;2023-06-10T00:01:17;1.33;;;0.93;;
64295;SDS011;51082;38.236;15.432;2023-06-10T00:02:23;1.13;;;0.95;;
64295;SDS011;51082;38.236;15.432;2023-06-10T00:03:27;2.22;;;0.88;;
64295;SDS011;51082;38.236;15.432;2023-06-10T00:04:30;1.55;;;0.93;;
64295;SDS011;51082;38.236;15.432;2023-06-10T00:05:32;1.05;;;0.63;;
64295;SDS011;51082;38.236;15.432;2023-06-10T00:06:35;2.28;;;1.13;;
64295;SDS011;51082;38.236;15.432;2023-06-10T00:07:37;1.33;;;0.98;;
64295;SDS011;51082;38.236;15.432;2023-06-10T00:08:44;2.83;;;1.02;;
64295;SDS011;51082;38.236;15.432;2023-06-10T00:09:50;0.77;;;0.77;;
64295;SDS011;51082;38.236;15.432;2023-06-10T00:10:53;1.70;;;0.90;;
64295;SDS011;51082;38.236;15.432;2023-06-10T00:11:57;3.38;;;1.05;;
64295;SDS011;51082;38.236;15.432;2023-06-10T00:13:01;1.98;;;1.35;;
64295;SDS011;51082;38.236;15.432;2023-06-10T00:14:08;1.60;;;1.48;;
64295;SDS011;51082;38.236;15.432;2023-06-10T00:15:15;1.02;;;0.98;;
64295;SDS011;51082;38.236;15.432;2023-06-10T00:16:20;1.55;;;1.23;;
64295;SDS011;51082;38.236;15.432;2023-06-10T00:17:23;2.05;;;1.50;;
64295;SDS011;51082;38.236;15.432;2023-06-10T00:18:25;2.38;;;0.98;;
64295;SDS011;51082;38.236;15.432;2023-06-10T00:19:31;0.80;;;0.80;;
64295;SDS011;51082;38.236;15.432;2023-06-10T00:20:42;2.33;;;0.95;;
64295;SDS011;51082;38.236;15.432;2023-06-10T00:21:49;11.77;;;1.15;;
64295;SDS011;51082;38.236;15.432;2023-06-10T00:22:51;1.42;;;1.33;;
64295;SDS011;51082;38.236;15.432;2023-06-10T00:23:57;1.67;;;0.98;;
64295;SDS011;51082;38.236;15.432;2023-06-10T00:26:12;1.25;;;1.15;;
64295;SDS011;51082;38.236;15.432;2023-06-10T00:27:15;2.13;;;1.00;;
64295;SDS011;51082;38.236;15.432;2023-06-10T00:28:21;3.03;;;0.95;;
64295;SDS011;51082;38.236;15.432;2023-06-10T00:29:26;2.05;;;1.00;;
64295;SDS011;51082;38.236;15.432;2023-06-10T00:30:29;3.03;;;1.48;;
64295;SDS011;51082;38.236;15.432;2023-06-10T00:31:34;1.00;;;0.80;;
64295;SDS011;51082;38.236;15.432;2023-06-10T00:32:40;1.48;;;1.38;;
64295;SDS011;51082;38.236;15.432;2023-06-10T00:33:44;2.05;;;1.30;;
64295;SDS011;51082;38.236;15.432;2023-06-10T00:34:49;0.80;;;0.80;;
64295;SDS011;51082;38.236;15.432;2023-06-10T00:35:51;1.90;;;1.00;;
64295;SDS011;51082;38.236;15.432;2023-06-10T00:36:57;1.27;;;1.17;;
64295;SDS011;51082;38.236;15.432;2023-06-10T00:37:58;2.90;;;1.25;;
64295;SDS011;51082;38.236;15.432;2023-06-10T00:39:11;1.48;;;1.00;;
64295;SDS011;51082;38.236;15.432;2023-06-10T00:40:19;0.90;;;0.80;;
64295;SDS011;51082;38.236;15.432;2023-06-10T00:41:22;1.42;;;0.75;;
64295;SDS011;51082;38.236;15.432;2023-06-10T00:43:35;0.65;;;0.65;;
64295;SDS011;51082;38.236;15.432;2023-06-10T00:44:37;2.50;;;1.30;;
64295;SDS011;51082;38.236;15.432;2023-06-10T00:45:47;0.85;;;0.80;;
64295;SDS011;51082;38.236;15.432;2023-06-10T00:46:59;2.90;;;0.93;;
64295;SDS011;51082;38.236;15.432;2023-06-10T00:48:04;1.42;;;1.02;;
64295;SDS011;51082;38.236;15.432;2023-06-10T00:50:11;4.57;;;0.57;;
64295;SDS011;51082;38.236;15.432;2023-06-10T00:51:25;1.10;;;0.95;;
64295;SDS011;51082;38.236;15.432;2023-06-10T00:52:28;0.80;;;0.73;;
64295;SDS011;51082;38.236;15.432;2023-06-10T00:53:31;0.82;;;0.70;;
64295;SDS011;51082;38.236;15.432;2023-06-10T00:54:38;1.10;;;1.00;;
64295;SDS011;51082;38.236;15.432;2023-06-10T00:55:43;1.08;;;0.98;;
64295;SDS011;51082;38.236;15.432;2023-06-10T00:56:46;1.30;;;0.82;;
64295;SDS011;51082;38.236;15.432;2023-06-10T00:57:53;1.40;;;1.05;;
64295;SDS011;51082;38.236;15.432;2023-06-10T00:58:56;2.40;;;1.13;;
64295;SDS011;51082;38.236;15.432;2023-06-10T00:59:59;2.47;;;1.05;;
64295;SDS011;51082;38.236;15.432;2023-06-10T01:01:08;1.17;;;0.88;;
64295;SDS011;51082;38.236;15.432;2023-06-10T01:02:14;3.13;;;0.75;;
64295;SDS011;51082;38.236;15.432;2023-06-10T01:03:17;1.08;;;0.95;;
64295;SDS011;51082;38.236;15.432;2023-06-10T01:04:19;0.93;;;0.65;;
64295;SDS011;51082;38.236;15.432;2023-06-10T01:05:27;0.70;;;0.70;;
64295;SDS011;51082;38.236;15.432;2023-06-10T01:06:34;1.83;;;1.08;;
64295;SDS011;51082;38.236;15.432;2023-06-10T01:07:49;4.43;;;0.90;;
64295;SDS011;51082;38.236;15.432;2023-06-10T01:09:02;0.88;;;0.88;;
64295;SDS011;51082;38.236;15.432;2023-06-10T01:10:18;2.00;;;1.02;;
64295;SDS011;51082;38.236;15.432;2023-06-10T01:11:27;0.70;;;0.60;;
64295;SDS011;51082;38.236;15.432;2023-06-10T01:12:35;2.22;;;1.20;;
64295;SDS011;51082;38.236;15.432;2023-06-10T01:13:47;1.67;;;1.10;;
64295;SDS011;51082;38.236;15.432;2023-06-10T01:14:54;1.75;;;1.05;;
64295;SDS011;51082;38.236;15.432;2023-06-10T01:15:59;1.40;;;1.08;;
64295;SDS011;51082;38.236;15.432;2023-06-10T01:17:06;2.25;;;1.05;;
64295;SDS011;51082;38.236;15.432;2023-06-10T01:18:10;0.90;;;0.85;;
64295;SDS011;51082;38.236;15.432;2023-06-10T01:19:24;1.00;;;0.70;;
64295;SDS011;51082;38.236;15.432;2023-06-10T01:20:35;1.52;;;0.90;;
64295;SDS011;51082;38.236;15.432;2023-06-10T01:21:48;0.80;;;0.70;;
64295;SDS011;51082;38.236;15.432;2023-06-10T01:22:55;2.30;;;0.90;;
64295;SDS011;51082;38.236;15.432;2023-06-10T01:23:58;0.93;;;0.80;;
64295;SDS011;51082;38.236;15.432;2023-06-10T01:25:09;1.92;;;1.00;;
64295;SDS011;51082;38.236;15.432;2023-06-10T01:26:14;1.48;;;0.77;;
64295;SDS011;51082;38.236;15.432;2023-06-10T01:27:17;1.63;;;1.00;;
64295;SDS011;51082;38.236;15.432;2023-06-10T01:28:25;3.28;;;1.10;;
64295;SDS011;51082;38.236;15.432;2023-06-10T01:29:33;0.88;;;0.80;;
64295;SDS011;51082;38.236;15.432;2023-06-10T01:30:47;1.30;;;0.98;;
64295;SDS011;51082;38.236;15.432;2023-06-10T01:31:57;0.85;;;0.60;;
64295;SDS011;51082;38.236;15.432;2023-06-10T01:33:27;0.40;;;0.40;;
64295;SDS011;51082;38.236;15.432;2023-06-10T01:34:44;1.98;;;1.00;;
64295;SDS011;51082;38.236;15.432;2023-06-10T01:35:49;3.15;;;0.93;;
64295;SDS011;51082;38.236;15.432;2023-06-10T01:36:54;0.90;;;0.63;;
64295;SDS011;51082;38.236;15.432;2023-06-10T01:38:05;1.60;;;0.80;;
64295;SDS011;51082;38.236;15.432;2023-06-10T01:39:11;1.45;;;1.02;;
64295;SDS011;51082;38.236;15.432;2023-06-10T01:40:15;2.20;;;1.10;;
64295;SDS011;51082;38.236;15.432;2023-06-10T01:41:29;1.80;;;1.20;;
64295;SDS011;51082;38.236;15.432;2023-06-10T01:42:44;1.80;;;0.77;;
64295;SDS011;51082;38.236;15.432;2023-06-10T01:43:45;3.67;;;1.10;;
64295;SDS011;51082;38.236;15.432;2023-06-10T01:44:53;2.38;;;0.70;;
64295;SDS011;51082;38.236;15.432;2023-06-10T01:45:58;4.63;;;1.15;;
64295;SDS011;51082;38.236;15.432;2023-06-10T01:47:06;3.92;;;0.98;;
64295;SDS011;51082;38.236;15.432;2023-06-10T01:48:07;2.97;;;1.38;;
64295;SDS011;51082;38.236;15.432;2023-06-10T01:49:10;3.60;;;1.38;;
64295;SDS011;51082;38.236;15.432;2023-06-10T01:50:18;0.75;;;0.68;;
64295;SDS011;51082;38.236;15.432;2023-06-10T01:51:39;1.50;;;1.02;;
64295;SDS011;51082;38.236;15.432;2023-06-10T01:52:44;1.15;;;1.05;;
64295;SDS011;51082;38.236;15.432;2023-06-10T01:53:46;2.13;;;0.95;;
64295;SDS011;51082;38.236;15.432;2023-06-10T01:54:53;3.10;;;0.75;;
64295;SDS011;51082;38.236;15.432;2023-06-10T01:55:55;2.15;;;1.10;;
64295;SDS011;51082;38.236;15.432;2023-06-10T01:57:00;4.50;;;0.85;;
64295;SDS011;51082;38.236;15.432;2023-06-10T01:58:04;1.38;;;1.08;;
64295;SDS011;51082;38.236;15.432;2023-06-10T01:59:15;0.63;;;0.63;;
64295;SDS011;51082;38.236;15.432;2023-06-10T02:00:19;1.02;;;0.93;;
64295;SDS011;51082;38.236;15.432;2023-06-10T02:01:22;2.72;;;1.15;;
64295;SDS011;51082;38.236;15.432;2023-06-10T02:02:23;1.15;;;0.95;;
64295;SDS011;51082;38.236;15.432;2023-06-10T02:03:27;1.40;;;0.70;;
64295;SDS011;51082;38.236;15.432;2023-06-10T02:04:30;0.73;;;0.70;;
64295;SDS011;51082;38.236;15.432;2023-06-10T02:05:35;1.13;;;1.02;;
64295;SDS011;51082;38.236;15.432;2023-06-10T02:06:43;1.98;;;0.90;;
64295;SDS011;51082;38.236;15.432;2023-06-10T02:07:49;2.03;;;1.20;;
64295;SDS011;51082;38.236;15.432;2023-06-10T02:08:51;1.65;;;1.23;;
64295;SDS011;51082;38.236;15.432;2023-06-10T02:09:54;0.98;;;0.93;;
64295;SDS011;51082;38.236;15.432;2023-06-10T02:10:59;1.77;;;1.10;;
64295;SDS011;51082;38.236;15.432;2023-06-10T02:12:06;1.55;;;0.88;;
64295;SDS011;51082;38.236;15.432;2023-06-10T02:13:08;2.85;;;0.90;;
64295;SDS011;51082;38.236;15.432;2023-06-10T02:14:12;2.65;;;1.30;;
64295;SDS011;51082;38.236;15.432;2023-06-10T02:15:19;0.77;;;0.70;;
64295;SDS011;51082;38.236;15.432;2023-06-10T02:16:22;1.60;;;1.20;;
64295;SDS011;51082;38.236;15.432;2023-06-10T02:17:27;1.20;;;1.10;;
64295;SDS011;51082;38.236;15.432;2023-06-10T02:18:34;1.77;;;0.70;;
64295;SDS011;51082;38.236;15.432;2023-06-10T02:19:37;2.00;;;1.23;;
64295;SDS011;51082;38.236;15.432;2023-06-10T02:20:44;0.60;;;0.60;;
64295;SDS011;51082;38.236;15.432;2023-06-10T02:22:08;1.45;;;0.57;;
64295;SDS011;51082;38.236;15.432;2023-06-10T02:23:14;0.75;;;0.75;;
64295;SDS011;51082;38.236;15.432;2023-06-10T02:24:17;0.77;;;0.75;;
64295;SDS011;51082;38.236;15.432;2023-06-10T02:25:28;3.85;;;0.65;;
64295;SDS011;51082;38.236;15.432;2023-06-10T02:26:37;2.35;;;0.98;;
64295;SDS011;51082;38.236;15.432;2023-06-10T02:27:41;1.10;;;0.80;;
64295;SDS011;51082;38.236;15.432;2023-06-10T02:28:44;1.55;;;1.33;;
64295;SDS011;51082;38.236;15.432;2023-06-10T02:29:48;1.25;;;1.05;;
64295;SDS011;51082;38.236;15.432;2023-06-10T02:30:51;2.92;;;1.00;;
64295;SDS011;51082;38.236;15.432;2023-06-10T02:31:53;1.35;;;1.08;;
64295;SDS011;51082;38.236;15.432;2023-06-10T02:33:16;1.33;;;0.82;;
64295;SDS011;51082;38.236;15.432;2023-06-10T02:34:20;1.30;;;0.75;;
64295;SDS011;51082;38.236;15.432;2023-06-10T02:35:29;6.18;;;1.15;;
64295;SDS011;51082;38.236;15.432;2023-06-10T02:36:34;0.80;;;0.77;;
64295;SDS011;51082;38.236;15.432;2023-06-10T02:37:39;5.05;;;0.90;;
64295;SDS011;51082;38.236;15.432;2023-06-10T02:38:45;0.90;;;0.90;;
64295;SDS011;51082;38.236;15.432;2023-06-10T02:39:58;2.40;;;1.00;;
64295;SDS011;51082;38.236;15.432;2023-06-10T02:41:06;0.57;;;0.57;;
64295;SDS011;51082;38.236;15.432;2023-06-10T02:42:17;2.75;;;1.00;;
64295;SDS011;51082;38.236;15.432;2023-06-10T02:43:21;2.08;;;0.95;;
64295;SDS011;51082;38.236;15.432;2023-06-10T02:45:41;1.33;;;0.68;;
64295;SDS011;51082;38.236;15.432;2023-06-10T02:46:48;1.40;;;1.05;;
64295;SDS011;51082;38.236;15.432;2023-06-10T02:47:49;1.10;;;0.80;;
64295;SDS011;51082;38.236;15.432;2023-06-10T02:50:00;1.13;;;1.02;;
64295;SDS011;51082;38.236;15.432;2023-06-10T02:51:05;1.30;;;0.70;;
64295;SDS011;51082;38.236;15.432;2023-06-10T02:52:07;1.13;;;1.02;;
64295;SDS011;51082;38.236;15.432;2023-06-10T02:53:12;2.05;;;1.50;;
64295;SDS011;51082;38.236;15.432;2023-06-10T02:54:15;0.70;;;0.70;;
64295;SDS011;51082;38.236;15.432;2023-06-10T02:55:21;1.25;;;0.90;;
64295;SDS011;51082;38.236;15.432;2023-06-10T02:56:22;1.98;;;1.23;;
64295;SDS011;51082;38.236;15.432;2023-06-10T02:57:30;2.42;;;1.05;;
64295;SDS011;51082;38.236;15.432;2023-06-10T02:58:32;1.35;;;1.00;;
64295;SDS011;51082;38.236;15.432;2023-06-10T02:59:39;0.70;;;0.60;;
64295;SDS011;51082;38.236;15.432;2023-06-10T03:00:41;0.75;;;0.75;;
64295;SDS011;51082;38.236;15.432;2023-06-10T03:01:50;0.85;;;0.77;;
64295;SDS011;51082;38.236;15.432;2023-06-10T03:03:16;1.58;;;1.05;;
64295;SDS011;51082;38.236;15.432;2023-06-10T03:04:17;1.40;;;0.95;;
64295;SDS011;51082;38.236;15.432;2023-06-10T03:05:24;0.60;;;0.60;;
64295;SDS011;51082;38.236;15.432;2023-06-10T03:06:25;1.40;;;0.93;;
64295;SDS011;51082;38.236;15.432;2023-06-10T03:07:33;1.00;;;0.57;;
64295;SDS011;51082;38.236;15.432;2023-06-10T03:08:36;1.55;;;0.85;;
64295;SDS011;51082;38.236;15.432;2023-06-10T03:09:44;0.50;;;0.50;;
64295;SDS011;51082;38.236;15.432;2023-06-10T03:10:48;1.55;;;0.88;;
64295;SDS011;51082;38.236;15.432;2023-06-10T03:11:51;2.05;;;1.00;;
64295;SDS011;51082;38.236;15.432;2023-06-10T03:12:53;1.00;;;0.90;;
64295;SDS011;51082;38.236;15.432;2023-06-10T03:13:56;2.75;;;0.80;;
64295;SDS011;51082;38.236;15.432;2023-06-10T03:14:58;0.88;;;0.73;;
64295;SDS011;51082;38.236;15.432;2023-06-10T03:16:01;2.80;;;0.85;;
64295;SDS011;51082;38.236;15.432;2023-06-10T03:17:04;4.05;;;0.98;;
64295;SDS011;51082;38.236;15.432;2023-06-10T03:18:09;1.00;;;0.60;;
64295;SDS011;51082;38.236;15.432;2023-06-10T03:19:13;3.25;;;1.15;;
64295;SDS011;51082;38.236;15.432;2023-06-10T03:20:19;2.15;;;0.90;;
64295;SDS011;51082;38.236;15.432;2023-06-10T03:21:22;0.75;;;0.52;;
64295;SDS011;51082;38.236;15.432;2023-06-10T03:22:25;1.05;;;0.60;;
64295;SDS011;51082;38.236;15.432;2023-06-10T03:23:32;1.38;;;1.10;;
64295;SDS011;51082;38.236;15.432;2023-06-10T03:24:37;1.00;;;0.50;;
64295;SDS011;51082;38.236;15.432;2023-06-10T03:27:04;0.90;;;0.70;;
64295;SDS011;51082;38.236;15.432;2023-06-10T03:28:11;4.78;;;1.10;;
64295;SDS011;51082;38.236;15.432;2023-06-10T03:29:14;0.68;;;0.63;;
64295;SDS011;51082;38.236;15.432;2023-06-10T03:30:19;1.90;;;0.98;;
64295;SDS011;51082;38.236;15.432;2023-06-10T03:31:22;2.65;;;1.15;;
64295;SDS011;51082;38.236;15.432;2023-06-10T03:32:27;3.58;;;1.05;;
64295;SDS011;51082;38.236;15.432;2023-06-10T03:33:34;3.53;;;1.33;;
64295;SDS011;51082;38.236;15.432;2023-06-10T03:34:36;1.65;;;0.88;;
64295;SDS011;51082;38.236;15.432;2023-06-10T03:35:39;1.98;;;1.48;;
64295;SDS011;51082;38.236;15.432;2023-06-10T03:36:41;5.53;;;0.63;;
64295;SDS011;51082;38.236;15.432;2023-06-10T03:37:44;1.08;;;1.00;;
64295;SDS011;51082;38.236;15.432;2023-06-10T03:38:51;0.80;;;0.70;;
64295;SDS011;51082;38.236;15.432;2023-06-10T03:39:54;2.47;;;1.10;;
64295;SDS011;51082;38.236;15.432;2023-06-10T03:40:57;1.33;;;1.00;;
64295;SDS011;51082;38.236;15.432;2023-06-10T03:42:01;0.90;;;0.85;;
64295;SDS011;51082;38.236;15.432;2023-06-10T03:43:06;1.27;;;1.08;;
64295;SDS011;51082;38.236;15.432;2023-06-10T03:44:08;1.13;;;0.90;;
64295;SDS011;51082;38.236;15.432;2023-06-10T03:45:10;2.22;;;1.17;;
64295;SDS011;51082;38.236;15.432;2023-06-10T03:46:13;1.58;;;1.48;;
64295;SDS011;51082;38.236;15.432;2023-06-10T03:47:15;0.85;;;0.80;;
64295;SDS011;51082;38.236;15.432;2023-06-10T03:48:21;1.38;;;0.85;;
64295;SDS011;51082;38.236;15.432;2023-06-10T03:49:22;2.55;;;0.77;;
64295;SDS011;51082;38.236;15.432;2023-06-10T03:50:27;2.10;;;1.10;;
64295;SDS011;51082;38.236;15.432;2023-06-10T03:51:29;3.15;;;1.90;;
64295;SDS011;51082;38.236;15.432;2023-06-10T03:52:37;1.90;;;1.33;;
64295;SDS011;51082;38.236;15.432;2023-06-10T03:53:39;0.85;;;0.85;;
64295;SDS011;51082;38.236;15.432;2023-06-10T03:54:41;1.80;;;1.23;;
64295;SDS011;51082;38.236;15.432;2023-06-10T03:55:46;6.95;;;0.82;;
64295;SDS011;51082;38.236;15.432;2023-06-10T03:56:56;0.82;;;0.70;;
64295;SDS011;51082;38.236;15.432;2023-06-10T03:57:57;3.70;;;1.17;;
64295;SDS011;51082;38.236;15.432;2023-06-10T03:59:03;0.40;;;0.40;;
64295;SDS011;51082;38.236;15.432;2023-06-10T04:00:06;1.33;;;1.00;;
64295;SDS011;51082;38.236;15.432;2023-06-10T04:01:15;3.78;;;0.70;;
64295;SDS011;51082;38.236;15.432;2023-06-10T04:02:18;1.38;;;0.90;;
64295;SDS011;51082;38.236;15.432;2023-06-10T04:03:22;3.92;;;0.70;;
64295;SDS011;51082;38.236;15.432;2023-06-10T04:04:23;5.80;;;0.70;;
64295;SDS011;51082;38.236;15.432;2023-06-10T04:05:28;3.78;;;0.90;;
64295;SDS011;51082;38.236;15.432;2023-06-10T04:06:30;2.15;;;1.05;;
64295;SDS011;51082;38.236;15.432;2023-06-10T04:07:33;0.73;;;0.70;;
64295;SDS011;51082;38.236;15.432;2023-06-10T04:08:37;1.55;;;0.63;;
64295;SDS011;51082;38.236;15.432;2023-06-10T04:09:41;3.55;;;1.17;;
64295;SDS011;51082;38.236;15.432;2023-06-10T04:10:43;1.50;;;0.95;;
64295;SDS011;51082;38.236;15.432;2023-06-10T04:11:46;2.47;;;0.85;;
64295;SDS011;51082;38.236;15.432;2023-06-10T04:12:55;2.50;;;1.38;;
64295;SDS011;51082;38.236;15.432;2023-06-10T04:13:58;1.00;;;0.90;;
64295;SDS011;51082;38.236;15.432;2023-06-10T04:15:00;0.70;;;0.70;;
64295;SDS011;51082;38.236;15.432;2023-06-10T04:16:03;1.90;;;0.82;;
64295;SDS011;51082;38.236;15.432;2023-06-10T04:17:05;0.70;;;0.55;;
64295;SDS011;51082;38.236;15.432;2023-06-10T04:18:09;1.15;;;0.93;;
64295;SDS011;51082;38.236;15.432;2023-06-10T04:19:10;1.00;;;0.80;;
64295;SDS011;51082;38.236;15.432;2023-06-10T04:20:16;4.13;;;1.15;;
64295;SDS011;51082;38.236;15.432;2023-06-10T04:21:17;2.22;;;1.15;;
64295;SDS011;51082;38.236;15.432;2023-06-10T04:22:20;0.93;;;0.50;;
64295;SDS011;51082;38.236;15.432;2023-06-10T04:23:22;2.22;;;1.10;;
64295;SDS011;51082;38.236;15.432;2023-06-10T04:24:25;0.77;;;0.73;;
64295;SDS011;51082;38.236;15.432;2023-06-10T04:25:29;0.80;;;0.80;;
64295;SDS011;51082;38.236;15.432;2023-06-10T04:26:35;0.85;;;0.80;;
64295;SDS011;51082;38.236;15.432;2023-06-10T04:27:37;1.33;;;1.00;;
64295;SDS011;51082;38.236;15.432;2023-06-10T04:28:42;1.08;;;0.47;;
64295;SDS011;51082;38.236;15.432;2023-06-10T04:29:44;1.23;;;0.85;;
64295;SDS011;51082;38.236;15.432;2023-06-10T04:30:47;0.73;;;0.70;;
64295;SDS011;51082;38.236;15.432;2023-06-10T04:31:49;3.33;;;1.08;;
64295;SDS011;51082;38.236;15.432;2023-06-10T04:32:54;5.22;;;0.70;;
64295;SDS011;51082;38.236;15.432;2023-06-10T04:33:55;1.92;;;0.90;;
64295;SDS011;51082;38.236;15.432;2023-06-10T04:34:59;0.60;;;0.50;;
64295;SDS011;51082;38.236;15.432;2023-06-10T04:36:01;2.45;;;0.93;;
64295;SDS011;51082;38.236;15.432;2023-06-10T04:37:04;4.03;;;0.90;;
64295;SDS011;51082;38.236;15.432;2023-06-10T04:38:06;1.02;;;0.95;;
64295;SDS011;51082;38.236;15.432;2023-06-10T04:39:09;0.50;;;0.50;;
64295;SDS011;51082;38.236;15.432;2023-06-10T04:40:11;1.38;;;1.27;;
64295;SDS011;51082;38.236;15.432;2023-06-10T04:41:14;1.40;;;0.95;;
64295;SDS011;51082;38.236;15.432;2023-06-10T04:42:16;0.63;;;0.52;;
64295;SDS011;51082;38.236;15.432;2023-06-10T04:43:20;0.88;;;0.85;;
64295;SDS011;51082;38.236;15.432;2023-06-10T04:44:23;2.28;;;0.98;;
64295;SDS011;51082;38.236;15.432;2023-06-10T04:45:25;4.20;;;1.02;;
64295;SDS011;51082;38.236;15.432;2023-06-10T04:46:27;1.75;;;0.90;;
64295;SDS011;51082;38.236;15.432;2023-06-10T04:47:31;3.45;;;1.85;;
64295;SDS011;51082;38.236;15.432;2023-06-10T04:48:33;7.20;;;3.20;;
64295;SDS011;51082;38.236;15.432;2023-06-10T04:49:37;9.07;;;4.05;;
64295;SDS011;51082;38.236;15.432;2023-06-10T04:50:39;11.63;;;4.38;;
64295;SDS011;51082;38.236;15.432;2023-06-10T04:51:42;8.60;;;4.10;;
64295;SDS011;51082;38.236;15.432;2023-06-10T04:52:44;15.63;;;6.35;;
64295;SDS011;51082;38.236;15.432;2023-06-10T04:53:47;10.00;;;6.35;;
64295;SDS011;51082;38.236;15.432;2023-06-10T04:54:49;16.30;;;7.10;;
64295;SDS011;51082;38.236;15.432;2023-06-10T04:55:52;10.70;;;6.28;;
64295;SDS011;51082;38.236;15.432;2023-06-10T04:57:04;14.52;;;4.65;;
64295;SDS011;51082;38.236;15.432;2023-06-10T04:59:14;16.65;;;5.80;;
64295;SDS011;51082;38.236;15.432;2023-06-10T05:00:19;13.27;;;5.97;;
64295;SDS011;51082;38.236;15.432;2023-06-10T05:01:22;9.57;;;5.55;;
64295;SDS011;51082;38.236;15.432;2023-06-10T05:02:23;8.65;;;5.05;;
64295;SDS011;51082;38.236;15.432;2023-06-10T05:03:26;14.07;;;5.18;;
64295;SDS011;51082;38.236;15.432;2023-06-10T05:04:33;8.57;;;4.50;;
64295;SDS011;51082;38.236;15.432;2023-06-10T05:05:39;11.85;;;3.50;;
64295;SDS011;51082;38.236;15.432;2023-06-10T05:06:41;10.80;;;3.83;;
64295;SDS011;51082;38.236;15.432;2023-06-10T05:07:43;6.75;;;4.35;;
64295;SDS011;51082;38.236;15.432;2023-06-10T05:08:46;9.57;;;4.30;;
64295;SDS011;51082;38.236;15.432;2023-06-10T05:09:48;8.48;;;4.85;;
64295;SDS011;51082;38.236;15.432;2023-06-10T05:10:50;7.57;;;4.85;;
64295;SDS011;51082;38.236;15.432;2023-06-10T05:12:01;11.65;;;5.07;;
64295;SDS011;51082;38.236;15.432;2023-06-10T05:13:04;7.43;;;4.20;;
64295;SDS011;51082;38.236;15.432;2023-06-10T05:14:06;6.22;;;3.85;;
64295;SDS011;51082;38.236;15.432;2023-06-10T05:15:11;6.05;;;4.60;;
64295;SDS011;51082;38.236;15.432;2023-06-10T05:16:17;6.03;;;3.75;;
64295;SDS011;51082;38.236;15.432;2023-06-10T05:17:20;9.77;;;4.28;;
64295;SDS011;51082;38.236;15.432;2023-06-10T05:18:22;6.28;;;4.15;;
64295;SDS011;51082;38.236;15.432;2023-06-10T05:19:27;5.57;;;4.07;;
64295;SDS011;51082;38.236;15.432;2023-06-10T05:20:29;5.78;;;4.60;;
64295;SDS011;51082;38.236;15.432;2023-06-10T05:21:32;7.20;;;4.55;;
64295;SDS011;51082;38.236;15.432;2023-06-10T05:22:36;7.32;;;4.88;;
64295;SDS011;51082;38.236;15.432;2023-06-10T05:23:42;5.47;;;3.13;;
64295;SDS011;51082;38.236;15.432;2023-06-10T05:24:48;5.95;;;3.58;;
64295;SDS011;51082;38.236;15.432;2023-06-10T05:25:50;8.45;;;4.07;;
64295;SDS011;51082;38.236;15.432;2023-06-10T05:26:59;6.28;;;3.30;;
64295;SDS011;51082;38.236;15.432;2023-06-10T05:28:07;3.35;;;2.50;;
64295;SDS011;51082;38.236;15.432;2023-06-10T05:29:11;5.13;;;3.55;;
64295;SDS011;51082;38.236;15.432;2023-06-10T05:30:16;3.60;;;2.33;;
64295;SDS011;51082;38.236;15.432;2023-06-10T05:31:32;2.25;;;1.73;;
64295;SDS011;51082;38.236;15.432;2023-06-10T05:32:34;4.65;;;1.98;;
64295;SDS011;51082;38.236;15.432;2023-06-10T05:33:41;3.63;;;2.67;;
64295;SDS011;51082;38.236;15.432;2023-06-10T05:34:48;5.13;;;2.22;;
64295;SDS011;51082;38.236;15.432;2023-06-10T05:36:03;2.10;;;1.23;;
64295;SDS011;51082;38.236;15.432;2023-06-10T05:37:11;1.92;;;1.42;;
64295;SDS011;51082;38.236;15.432;2023-06-10T05:38:16;2.55;;;1.70;;
64295;SDS011;51082;38.236;15.432;2023-06-10T05:39:20;3.60;;;1.90;;
64295;SDS011;51082;38.236;15.432;2023-06-10T05:40:25;2.97;;;2.40;;
64295;SDS011;51082;38.236;15.432;2023-06-10T05:41:30;2.30;;;1.63;;
64295;SDS011;51082;38.236;15.432;2023-06-10T05:42:40;2.72;;;1.20;;
64295;SDS011;51082;38.236;15.432;2023-06-10T05:43:42;1.35;;;1.25;;
64295;SDS011;51082;38.236;15.432;2023-06-10T05:44:46;8.70;;;1.35;;
64295;SDS011;51082;38.236;15.432;2023-06-10T05:45:48;3.15;;;1.52;;
64295;SDS011;51082;38.236;15.432;2023-06-10T05:47:06;1.20;;;0.93;;
64295;SDS011;51082;38.236;15.432;2023-06-10T05:48:11;4.22;;;1.25;;
64295;SDS011;51082;38.236;15.432;2023-06-10T05:49:16;1.45;;;1.35;;
64295;SDS011;51082;38.236;15.432;2023-06-10T05:50:21;1.50;;;0.88;;
64295;SDS011;51082;38.236;15.432;2023-06-10T05:51:24;0.90;;;0.85;;
64295;SDS011;51082;38.236;15.432;2023-06-10T05:52:40;10.00;;;1.55;;
64295;SDS011;51082;38.236;15.432;2023-06-10T05:53:51;1.38;;;1.27;;
64295;SDS011;51082;38.236;15.432;2023-06-10T05:54:53;2.35;;;1.20;;
64295;SDS011;51082;38.236;15.432;2023-06-10T05:56:00;9.90;;;1.38;;
64295;SDS011;51082;38.236;15.432;2023-06-10T05:57:04;2.50;;;1.52;;
64295;SDS011;51082;38.236;15.432;2023-06-10T05:58:09;2.60;;;1.55;;
64295;SDS011;51082;38.236;15.432;2023-06-10T05:59:13;1.58;;;1.25;;
64295;SDS011;51082;38.236;15.432;2023-06-10T06:00:15;1.70;;;1.42;;
64295;SDS011;51082;38.236;15.432;2023-06-10T06:01:26;4.50;;;1.63;;
64295;SDS011;51082;38.236;15.432;2023-06-10T06:03:35;4.50;;;1.88;;
64295;SDS011;51082;38.236;15.432;2023-06-10T06:04:38;5.10;;;1.90;;
64295;SDS011;51082;38.236;15.432;2023-06-10T06:05:46;1.40;;;1.30;;
64295;SDS011;51082;38.236;15.432;2023-06-10T06:06:51;2.55;;;1.17;;
64295;SDS011;51082;38.236;15.432;2023-06-10T06:07:53;1.13;;;0.75;;
64295;SDS011;51082;38.236;15.432;2023-06-10T06:08:56;2.00;;;1.13;;
64295;SDS011;51082;38.236;15.432;2023-06-10T06:09:58;2.17;;;1.02;;
64295;SDS011;51082;38.236;15.432;2023-06-10T06:11:01;2.05;;;1.40;;
64295;SDS011;51082;38.236;15.432;2023-06-10T06:12:03;2.20;;;1.70;;
64295;SDS011;51082;38.236;15.432;2023-06-10T06:13:09;1.77;;;1.23;;
64295;SDS011;51082;38.236;15.432;2023-06-10T06:14:14;3.17;;;1.35;;
64295;SDS011;51082;38.236;15.432;2023-06-10T06:15:19;5.65;;;1.00;;
64295;SDS011;51082;38.236;15.432;2023-06-10T06:16:21;1.95;;;0.75;;
64295;SDS011;51082;38.236;15.432;2023-06-10T06:17:30;2.33;;;1.42;;
64295;SDS011;51082;38.236;15.432;2023-06-10T06:18:48;1.52;;;1.20;;
64295;SDS011;51082;38.236;15.432;2023-06-10T06:19:55;6.57;;;1.25;;
64295;SDS011;51082;38.236;15.432;2023-06-10T06:20:57;5.80;;;3.15;;
64295;SDS011;51082;38.236;15.432;2023-06-10T06:22:02;4.03;;;2.65;;
64295;SDS011;51082;38.236;15.432;2023-06-10T06:23:04;2.50;;;1.38;;
64295;SDS011;51082;38.236;15.432;2023-06-10T06:24:07;1.40;;;1.30;;
64295;SDS011;51082;38.236;15.432;2023-06-10T06:25:17;6.97;;;1.83;;
64295;SDS011;51082;38.236;15.432;2023-06-10T06:26:36;3.67;;;1.35;;
64295;SDS011;51082;38.236;15.432;2023-06-10T06:27:40;5.35;;;1.77;;
64295;SDS011;51082;38.236;15.432;2023-06-10T06:28:48;1.55;;;1.17;;
64295;SDS011;51082;38.236;15.432;2023-06-10T06:29:50;4.65;;;1.42;;
64295;SDS011;51082;38.236;15.432;2023-06-10T06:30:53;1.88;;;1.10;;
64295;SDS011;51082;38.236;15.432;2023-06-10T06:32:01;6.88;;;1.65;;
64295;SDS011;51082;38.236;15.432;2023-06-10T06:34:30;1.58;;;1.23;;
64295;SDS011;51082;38.236;15.432;2023-06-10T06:35:36;2.03;;;0.88;;
64295;SDS011;51082;38.236;15.432;2023-06-10T06:36:40;2.80;;;1.48;;
64295;SDS011;51082;38.236;15.432;2023-06-10T06:37:43;3.72;;;1.77;;